createdAt,value
2019-01-12T00:01:56.570Z,73.60
2019-01-12T00:04:56.083Z,73.29
2019-01-12T00:10:42.509Z,74.72
2019-01-12T00:13:42.568Z,74.40
2019-01-12T00:16:10.359Z,73.76
2019-01-12T00:19:09.786Z,74.95
2019-01-12T00:22:09.887Z,74.08
2019-01-12T00:25:09.932Z,74.58
2019-01-12T00:27:56.970Z,74.34
2019-01-12T00:30:56.403Z,74.20
2019-01-12T00:33:56.651Z,74.16
2019-01-12T00:36:24.481Z,73.99
2019-01-12T00:39:14.225Z,73.64
2019-01-12T00:42:13.692Z,73.15
2019-01-12T00:45:13.808Z,73.01
2019-01-12T00:47:41.902Z,73.02
2019-01-12T00:50:11.481Z,73.36
2019-01-12T00:59:12.701Z,75.38
2019-01-12T01:05:01.520Z,74.55
2019-01-12T01:08:01.853Z,73.57
2019-01-12T01:13:48.571Z,72.29
2019-01-12T01:16:48.641Z,71.84
2019-01-12T01:22:17.021Z,71.83
2019-01-12T01:28:18.028Z,72.26
2019-01-12T01:31:17.434Z,72.07
2019-01-12T01:34:17.630Z,72.43
2019-01-12T01:39:58.201Z,71.30
2019-01-12T01:42:58.483Z,71.92
2019-01-12T01:48:26.776Z,73.17
2019-01-12T01:51:27.158Z,74.03
2019-01-12T01:57:06.707Z,74.79
2019-01-12T02:00:06.331Z,75.77
2019-01-12T02:02:34.148Z,75.55
2019-01-12T02:05:33.607Z,75.93
2019-01-12T02:08:33.899Z,76.20
2019-01-12T02:14:34.663Z,76.46
2019-01-12T02:17:02.405Z,76.76
2019-01-12T02:19:42.191Z,76.92
2019-01-12T02:22:50.507Z,77.11
2019-01-12T02:25:18.277Z,77.02
2019-01-12T02:28:00.423Z,76.55
2019-01-12T02:30:49.478Z,76.21
2019-01-12T02:33:29.273Z,76.25
2019-01-12T02:35:56.813Z,75.58
2019-01-12T02:38:24.442Z,75.37
2019-01-12T02:40:52.061Z,75.47
2019-01-12T02:43:51.572Z,76.73
2019-01-12T02:46:19.216Z,76.38
2019-01-12T02:48:46.810Z,76.63
2019-01-12T02:51:14.406Z,76.35
2019-01-12T02:53:42.035Z,76.64
2019-01-12T02:56:09.605Z,77.06
2019-01-12T02:58:37.255Z,77.82
2019-01-12T03:01:05.243Z,77.86
2019-01-12T03:03:32.898Z,77.48
2019-01-12T03:06:00.521Z,77.60
2019-01-12T03:08:28.134Z,77.37
2019-01-12T03:10:58.602Z,77.64
2019-01-12T03:13:45.680Z,77.68
2019-01-12T03:16:54.062Z,78.67
2019-01-12T03:22:53.368Z,78.86
2019-01-12T03:25:53.620Z,79.35
2019-01-12T03:34:57.195Z,79.43
2019-01-12T03:37:57.460Z,80.02
2019-01-12T03:40:57.743Z,79.16
2019-01-12T03:43:57.900Z,79.53
2019-01-12T03:46:58.041Z,79.69
2019-01-12T03:49:25.985Z,78.96
2019-01-12T03:52:14.928Z,78.90
2019-01-12T03:55:04.065Z,79.19
2019-01-12T04:00:45.979Z,79.79
2019-01-12T04:03:54.298Z,79.68
2019-01-12T04:09:55.461Z,79.79
2019-01-12T04:12:55.690Z,80.12
2019-01-12T04:15:55.714Z,79.95
2019-01-12T04:18:55.760Z,79.91
2019-01-12T04:21:55.962Z,79.85
2019-01-12T04:24:56.003Z,79.67
2019-01-12T04:27:56.687Z,79.50
2019-01-12T04:33:18.639Z,79.36
2019-01-12T04:39:36.087Z,80.00
2019-01-12T04:42:35.887Z,80.27
2019-01-12T04:48:42.837Z,79.64
2019-01-12T04:55:00.669Z,80.27
2019-01-12T05:01:18.136Z,81.26
2019-01-12T05:03:58.318Z,80.95
2019-01-12T05:07:06.919Z,80.73
2019-01-12T05:12:46.586Z,80.35
2019-01-12T05:16:00.521Z,80.60
2019-01-12T05:19:00.189Z,80.33
2019-01-12T05:22:00.838Z,80.26
2019-01-12T05:25:01.377Z,80.69
2019-01-12T05:28:01.610Z,80.87
2019-01-12T05:30:48.830Z,80.31
2019-01-12T05:33:50.708Z,80.20
2019-01-12T05:36:50.649Z,80.20
2019-01-12T05:42:49.849Z,80.96
2019-01-12T05:48:49.395Z,80.74
2019-01-12T05:54:50.665Z,80.67
2019-01-12T06:00:51.944Z,80.34
2019-01-12T06:06:51.236Z,80.47
2019-01-12T06:12:50.489Z,80.13
2019-01-12T06:18:57.875Z,79.99
2019-01-12T06:24:58.208Z,80.65
2019-01-12T06:30:37.120Z,80.62
2019-01-12T06:36:45.901Z,81.16
2019-01-12T06:39:33.153Z,81.23
2019-01-12T06:42:20.220Z,80.90
2019-01-12T06:45:26.085Z,81.06
2019-01-12T06:48:34.453Z,81.05
2019-01-12T06:57:44.154Z,81.51
2019-01-12T07:00:31.204Z,81.46
2019-01-12T07:03:41.351Z,81.36
2019-01-12T07:09:40.681Z,81.00
2019-01-12T07:12:20.359Z,81.39
2019-01-12T07:15:28.619Z,82.17
2019-01-12T07:18:28.230Z,81.87
2019-01-12T07:26:58.449Z,81.20
2019-01-12T07:29:57.822Z,80.36
2019-01-12T07:33:06.241Z,79.90
2019-01-12T07:38:34.993Z,80.68
2019-01-12T07:41:13.938Z,80.22
2019-01-12T07:44:04.273Z,79.27
2019-01-12T07:46:54.230Z,78.87
2019-01-12T07:52:23.077Z,78.85
2019-01-12T07:57:55.483Z,78.46
2019-01-12T08:01:03.853Z,78.24
2019-01-12T08:06:32.230Z,77.00
2019-01-12T08:09:32.500Z,75.69
2019-01-12T08:12:32.648Z,76.44
2019-01-12T08:15:33.034Z,76.09
2019-01-12T08:18:33.174Z,75.46
2019-01-12T08:21:33.317Z,75.73
2019-01-12T08:24:33.543Z,75.38
2019-01-12T08:33:03.576Z,72.30
2019-01-12T08:35:58.528Z,71.76
2019-01-12T08:38:47.535Z,70.10
2019-01-12T08:41:47.154Z,69.00
2019-01-12T08:44:27.199Z,67.80
2019-01-12T08:50:35.739Z,64.39
2019-01-12T08:53:22.799Z,63.06
2019-01-12T08:56:11.739Z,63.48
2019-01-12T08:59:11.396Z,61.23
2019-01-12T09:01:52.112Z,60.32
2019-01-12T09:04:51.466Z,59.38
2019-01-12T09:07:50.941Z,57.79
2019-01-12T09:10:20.055Z,57.05
2019-01-12T09:12:47.756Z,56.67
2019-01-12T09:15:15.467Z,55.48
2019-01-12T09:20:24.125Z,55.07
2019-01-12T09:23:23.781Z,54.35
2019-01-12T09:26:12.726Z,54.65
2019-01-12T09:29:13.021Z,54.57
2019-01-12T09:32:13.143Z,54.32
2019-01-12T09:35:13.301Z,53.66
2019-01-12T09:38:13.401Z,54.08
2019-01-12T09:40:41.186Z,54.20
2019-01-12T09:43:41.171Z,53.61
2019-01-12T09:46:08.870Z,52.65
2019-01-12T09:49:08.267Z,53.92
2019-01-12T09:52:08.367Z,53.21
2019-01-12T09:54:36.131Z,51.37
2019-01-12T09:57:03.813Z,51.32
2019-01-12T09:59:31.531Z,51.68
2019-01-12T10:01:59.284Z,52.24
2019-01-12T10:04:27.091Z,51.13
2019-01-12T10:06:55.021Z,49.78
2019-01-12T10:09:22.756Z,49.45
2019-01-12T10:11:50.415Z,49.34
2019-01-12T10:14:18.094Z,50.39
2019-01-12T10:16:45.782Z,51.57
2019-01-12T10:19:13.622Z,50.06
2019-01-12T10:21:41.342Z,48.86
2019-01-12T10:24:09.181Z,48.82
2019-01-12T10:26:36.893Z,49.89
2019-01-12T10:29:16.951Z,50.95
2019-01-12T10:31:44.708Z,49.50
2019-01-12T10:34:12.538Z,49.69
2019-01-12T10:36:40.225Z,48.97
2019-01-12T10:39:08.055Z,49.27
2019-01-12T10:41:35.885Z,49.55
2019-01-12T10:44:36.124Z,50.22
2019-01-12T10:47:04.063Z,49.80
2019-01-12T10:49:31.783Z,49.87
2019-01-12T10:51:59.658Z,49.59
2019-01-12T10:54:27.337Z,49.11
2019-01-12T10:56:55.147Z,48.07
2019-01-12T10:59:22.794Z,48.05
2019-01-12T11:01:50.511Z,47.99
2019-01-12T11:04:18.247Z,48.16
2019-01-12T11:06:45.985Z,50.28
2019-01-12T11:09:45.464Z,49.86
2019-01-12T11:12:25.158Z,49.44
2019-01-12T11:15:25.144Z,51.37
2019-01-12T11:18:25.262Z,51.58
2019-01-12T11:21:24.579Z,49.63
2019-01-12T11:24:24.670Z,50.76
2019-01-12T11:27:04.456Z,49.73
2019-01-12T11:30:03.934Z,48.18
2019-01-12T11:32:44.371Z,49.05
2019-01-12T11:35:33.359Z,50.45
2019-01-12T11:38:33.376Z,50.85
2019-01-12T11:41:12.985Z,50.23
2019-01-12T11:44:12.684Z,51.36
2019-01-12T11:47:12.861Z,52.27
2019-01-12T11:50:13.055Z,51.07
2019-01-12T11:53:13.404Z,51.30
2019-01-12T11:55:41.217Z,51.94
2019-01-12T11:58:41.358Z,52.50
2019-01-12T12:01:09.089Z,53.11
2019-01-12T12:04:08.475Z,54.51
2019-01-12T12:06:36.234Z,53.88
2019-01-12T12:09:37.707Z,53.97
2019-01-12T12:12:05.546Z,53.73
2019-01-12T12:15:05.119Z,53.77
2019-01-12T12:17:32.973Z,54.23
2019-01-12T12:20:14.996Z,54.42
2019-01-12T12:22:42.660Z,54.74
2019-01-12T12:28:11.609Z,54.84
2019-01-12T12:30:41.122Z,56.05
2019-01-12T12:33:09.132Z,56.20
2019-01-12T12:41:51.029Z,56.32
2019-01-12T12:44:18.785Z,56.94
2019-01-12T12:47:18.937Z,56.06
2019-01-12T12:49:46.709Z,56.03
2019-01-12T12:52:14.484Z,56.55
2019-01-12T12:54:42.190Z,57.26
2019-01-12T12:57:41.875Z,56.72
2019-01-12T13:00:46.061Z,57.41
2019-01-12T13:03:13.761Z,56.75
2019-01-12T13:05:41.589Z,56.12
2019-01-12T13:08:41.392Z,57.04
2019-01-12T13:11:09.062Z,57.26
2019-01-12T13:16:37.514Z,56.88
2019-01-12T13:19:16.561Z,57.46
2019-01-12T13:21:44.434Z,57.41
2019-01-12T13:24:43.778Z,57.42
2019-01-12T13:27:11.562Z,55.91
2019-01-12T13:29:50.712Z,55.57
2019-01-12T13:32:18.462Z,56.32
2019-01-12T13:37:45.865Z,56.15
2019-01-12T13:40:46.821Z,57.34
2019-01-12T13:43:46.200Z,56.72
2019-01-12T13:46:13.942Z,55.70
2019-01-12T13:49:14.344Z,55.75
2019-01-12T13:52:02.402Z,55.72
2019-01-12T13:57:21.188Z,53.83
2019-01-12T14:00:21.438Z,53.25
2019-01-12T14:02:49.101Z,53.15
2019-01-12T14:05:16.852Z,53.60
2019-01-12T14:07:44.912Z,53.73
2019-01-12T14:13:16.676Z,53.93
2019-01-12T14:16:16.868Z,54.50
2019-01-12T14:21:25.382Z,54.21
2019-01-12T14:24:04.416Z,54.95
2019-01-12T14:26:44.459Z,56.25
2019-01-12T14:29:12.213Z,56.28
2019-01-12T14:32:12.050Z,57.20
2019-01-12T14:35:12.224Z,57.54
2019-01-12T14:37:39.955Z,58.68
2019-01-12T14:40:10.098Z,58.43
2019-01-12T14:42:37.841Z,58.84
2019-01-12T14:45:18.465Z,59.28
2019-01-12T14:47:46.276Z,59.09
2019-01-12T14:50:46.214Z,59.32
2019-01-12T14:53:45.794Z,59.42
2019-01-12T14:56:34.668Z,59.22
2019-01-12T14:59:34.130Z,60.26
2019-01-12T15:02:34.370Z,60.35
2019-01-12T15:05:36.041Z,61.13
2019-01-12T15:08:36.277Z,61.54
2019-01-12T15:11:04.101Z,63.07
2019-01-12T15:13:44.248Z,63.42
2019-01-12T15:16:24.752Z,63.79
2019-01-12T15:19:24.716Z,64.00
2019-01-12T15:21:52.390Z,64.56
2019-01-12T15:24:52.716Z,65.67
2019-01-12T15:27:20.476Z,65.82
2019-01-12T15:30:19.922Z,66.14
2019-01-12T15:33:01.575Z,66.50
2019-01-12T15:35:31.670Z,66.69
2019-01-12T15:47:01.301Z,68.01
2019-01-12T15:50:01.450Z,68.65
2019-01-12T15:52:41.078Z,68.47
2019-01-12T15:55:41.009Z,68.66
2019-01-12T15:58:41.194Z,69.23
2019-01-12T16:01:21.345Z,70.45
2019-01-12T16:07:16.668Z,71.50
2019-01-12T16:10:06.468Z,71.30
2019-01-12T16:13:05.892Z,71.08
